sensor_id;sensor_type;location;lat;lon;timestamp;P1;durP1;ratioP1;P2;durP2;ratioP2
76856;SDS011;66179;44.686;37.628;2023-04-03T00:00:33;10.27;;;2.37;;
76856;SDS011;66179;44.686;37.628;2023-04-03T00:03:00;10.13;;;2.35;;
76856;SDS011;66179;44.686;37.628;2023-04-03T00:05:27;7.80;;;2.30;;
76856;SDS011;66179;44.686;37.628;2023-04-03T00:07:54;8.60;;;2.40;;
76856;SDS011;66179;44.686;37.628;2023-04-03T00:10:21;11.40;;;2.47;;
76856;SDS011;66179;44.686;37.628;2023-04-03T00:12:48;10.37;;;2.30;;
76856;SDS011;66179;44.686;37.628;2023-04-03T00:15:15;11.45;;;2.20;;
76856;SDS011;66179;44.686;37.628;2023-04-03T00:17:42;7.82;;;2.70;;
76856;SDS011;66179;44.686;37.628;2023-04-03T00:20:14;7.90;;;2.33;;
76856;SDS011;66179;44.686;37.628;2023-04-03T00:22:41;9.80;;;2.30;;
76856;SDS011;66179;44.686;37.628;2023-04-03T00:25:08;8.40;;;2.20;;
76856;SDS011;66179;44.686;37.628;2023-04-03T00:27:36;9.48;;;2.10;;
76856;SDS011;66179;44.686;37.628;2023-04-03T00:30:04;8.25;;;2.10;;
76856;SDS011;66179;44.686;37.628;2023-04-03T00:32:32;7.63;;;2.15;;
76856;SDS011;66179;44.686;37.628;2023-04-03T00:34:59;9.13;;;2.58;;
76856;SDS011;66179;44.686;37.628;2023-04-03T00:37:26;8.83;;;2.40;;
76856;SDS011;66179;44.686;37.628;2023-04-03T00:39:53;9.00;;;2.38;;
76856;SDS011;66179;44.686;37.628;2023-04-03T00:42:20;8.30;;;2.40;;
76856;SDS011;66179;44.686;37.628;2023-04-03T00:47:15;7.68;;;2.22;;
76856;SDS011;66179;44.686;37.628;2023-04-03T00:49:43;7.87;;;2.20;;
76856;SDS011;66179;44.686;37.628;2023-04-03T00:52:11;6.85;;;2.13;;
76856;SDS011;66179;44.686;37.628;2023-04-03T00:54:43;11.15;;;2.25;;
76856;SDS011;66179;44.686;37.628;2023-04-03T00:57:17;10.52;;;2.65;;
76856;SDS011;66179;44.686;37.628;2023-04-03T00:59:50;8.57;;;2.35;;
76856;SDS011;66179;44.686;37.628;2023-04-03T01:02:21;11.23;;;2.60;;
76856;SDS011;66179;44.686;37.628;2023-04-03T01:05:08;6.97;;;2.20;;
76856;SDS011;66179;44.686;37.628;2023-04-03T01:07:36;10.25;;;2.15;;
76856;SDS011;66179;44.686;37.628;2023-04-03T01:10:05;10.63;;;2.38;;
76856;SDS011;66179;44.686;37.628;2023-04-03T01:12:36;9.60;;;2.63;;
76856;SDS011;66179;44.686;37.628;2023-04-03T01:15:12;14.10;;;3.50;;
76856;SDS011;66179;44.686;37.628;2023-04-03T01:17:47;9.35;;;2.55;;
76856;SDS011;66179;44.686;37.628;2023-04-03T01:25:46;9.75;;;2.60;;
76856;SDS011;66179;44.686;37.628;2023-04-03T01:28:31;10.87;;;2.70;;
76856;SDS011;66179;44.686;37.628;2023-04-03T01:34:05;11.13;;;3.30;;
76856;SDS011;66179;44.686;37.628;2023-04-03T01:36:32;8.57;;;2.67;;
76856;SDS011;66179;44.686;37.628;2023-04-03T01:38:59;10.93;;;3.72;;
76856;SDS011;66179;44.686;37.628;2023-04-03T01:41:26;9.93;;;2.83;;
76856;SDS011;66179;44.686;37.628;2023-04-03T01:43:59;13.93;;;3.20;;
76856;SDS011;66179;44.686;37.628;2023-04-03T01:46:26;9.07;;;3.20;;
76856;SDS011;66179;44.686;37.628;2023-04-03T01:48:52;11.93;;;3.28;;
76856;SDS011;66179;44.686;37.628;2023-04-03T01:51:19;14.30;;;3.35;;
76856;SDS011;66179;44.686;37.628;2023-04-03T01:53:45;13.97;;;3.93;;
76856;SDS011;66179;44.686;37.628;2023-04-03T01:56:12;13.18;;;3.63;;
76856;SDS011;66179;44.686;37.628;2023-04-03T01:58:39;13.55;;;3.55;;
76856;SDS011;66179;44.686;37.628;2023-04-03T02:01:06;15.43;;;3.70;;
76856;SDS011;66179;44.686;37.628;2023-04-03T02:03:33;11.35;;;3.50;;
76856;SDS011;66179;44.686;37.628;2023-04-03T02:05:59;10.27;;;3.57;;
76856;SDS011;66179;44.686;37.628;2023-04-03T02:08:47;12.25;;;3.67;;
76856;SDS011;66179;44.686;37.628;2023-04-03T02:11:19;15.25;;;4.35;;
76856;SDS011;66179;44.686;37.628;2023-04-03T02:13:46;11.88;;;4.47;;
76856;SDS011;66179;44.686;37.628;2023-04-03T02:16:12;14.77;;;4.00;;
76856;SDS011;66179;44.686;37.628;2023-04-03T02:18:39;13.23;;;4.07;;
76856;SDS011;66179;44.686;37.628;2023-04-03T02:21:05;13.80;;;4.20;;
76856;SDS011;66179;44.686;37.628;2023-04-03T02:23:52;12.73;;;4.10;;
76856;SDS011;66179;44.686;37.628;2023-04-03T02:26:19;11.52;;;4.30;;
76856;SDS011;66179;44.686;37.628;2023-04-03T02:29:07;13.20;;;4.18;;
76856;SDS011;66179;44.686;37.628;2023-04-03T02:31:34;15.43;;;4.37;;
76856;SDS011;66179;44.686;37.628;2023-04-03T02:34:02;10.27;;;3.70;;
76856;SDS011;66179;44.686;37.628;2023-04-03T02:36:34;14.45;;;3.90;;
76856;SDS011;66179;44.686;37.628;2023-04-03T02:39:04;12.82;;;4.28;;
76856;SDS011;66179;44.686;37.628;2023-04-03T02:41:36;12.90;;;4.35;;
76856;SDS011;66179;44.686;37.628;2023-04-03T02:44:13;12.33;;;4.33;;
76856;SDS011;66179;44.686;37.628;2023-04-03T02:46:40;12.80;;;4.63;;
76856;SDS011;66179;44.686;37.628;2023-04-03T02:49:07;14.27;;;5.07;;
76856;SDS011;66179;44.686;37.628;2023-04-03T02:51:33;15.07;;;5.43;;
76856;SDS011;66179;44.686;37.628;2023-04-03T02:54:00;13.95;;;4.43;;
76856;SDS011;66179;44.686;37.628;2023-04-03T02:56:30;14.70;;;4.80;;
76856;SDS011;66179;44.686;37.628;2023-04-03T02:58:57;14.52;;;4.80;;
76856;SDS011;66179;44.686;37.628;2023-04-03T03:01:29;13.93;;;5.00;;
76856;SDS011;66179;44.686;37.628;2023-04-03T03:03:58;15.93;;;5.00;;
76856;SDS011;66179;44.686;37.628;2023-04-03T03:06:26;16.83;;;5.50;;
76856;SDS011;66179;44.686;37.628;2023-04-03T03:08:54;14.77;;;5.10;;
76856;SDS011;66179;44.686;37.628;2023-04-03T03:11:21;12.77;;;5.30;;
76856;SDS011;66179;44.686;37.628;2023-04-03T03:13:47;16.45;;;5.38;;
76856;SDS011;66179;44.686;37.628;2023-04-03T03:16:19;12.55;;;5.53;;
76856;SDS011;66179;44.686;37.628;2023-04-03T03:18:46;16.23;;;5.35;;
76856;SDS011;66179;44.686;37.628;2023-04-03T03:21:13;14.50;;;5.40;;
76856;SDS011;66179;44.686;37.628;2023-04-03T03:23:40;16.27;;;5.07;;
76856;SDS011;66179;44.686;37.628;2023-04-03T03:26:08;18.52;;;5.43;;
76856;SDS011;66179;44.686;37.628;2023-04-03T03:28:36;14.45;;;5.20;;
76856;SDS011;66179;44.686;37.628;2023-04-03T03:31:05;13.45;;;4.80;;
76856;SDS011;66179;44.686;37.628;2023-04-03T03:33:33;14.80;;;5.80;;
76856;SDS011;66179;44.686;37.628;2023-04-03T03:36:00;14.82;;;5.35;;
76856;SDS011;66179;44.686;37.628;2023-04-03T03:38:27;16.73;;;5.78;;
76856;SDS011;66179;44.686;37.628;2023-04-03T03:40:54;15.20;;;5.55;;
76856;SDS011;66179;44.686;37.628;2023-04-03T03:43:22;14.50;;;5.28;;
76856;SDS011;66179;44.686;37.628;2023-04-03T03:45:51;15.97;;;5.50;;
76856;SDS011;66179;44.686;37.628;2023-04-03T03:48:23;16.20;;;5.32;;
76856;SDS011;66179;44.686;37.628;2023-04-03T03:50:50;18.70;;;5.60;;
76856;SDS011;66179;44.686;37.628;2023-04-03T03:53:22;17.58;;;5.38;;
76856;SDS011;66179;44.686;37.628;2023-04-03T03:55:52;14.88;;;5.30;;
76856;SDS011;66179;44.686;37.628;2023-04-03T03:58:42;18.67;;;5.73;;
76856;SDS011;66179;44.686;37.628;2023-04-03T04:01:09;12.98;;;5.47;;
76856;SDS011;66179;44.686;37.628;2023-04-03T04:03:41;18.60;;;5.88;;
76856;SDS011;66179;44.686;37.628;2023-04-03T04:06:10;14.35;;;5.30;;
76856;SDS011;66179;44.686;37.628;2023-04-03T04:08:57;17.02;;;5.43;;
76856;SDS011;66179;44.686;37.628;2023-04-03T04:11:24;18.03;;;5.03;;
76856;SDS011;66179;44.686;37.628;2023-04-03T04:13:58;13.82;;;5.30;;
76856;SDS011;66179;44.686;37.628;2023-04-03T04:16:28;14.18;;;5.30;;
76856;SDS011;66179;44.686;37.628;2023-04-03T04:18:57;17.70;;;6.10;;
76856;SDS011;66179;44.686;37.628;2023-04-03T04:21:24;16.10;;;5.13;;
76856;SDS011;66179;44.686;37.628;2023-04-03T04:23:53;13.83;;;5.30;;
76856;SDS011;66179;44.686;37.628;2023-04-03T04:26:25;16.25;;;5.13;;
76856;SDS011;66179;44.686;37.628;2023-04-03T04:28:52;14.70;;;5.53;;
76856;SDS011;66179;44.686;37.628;2023-04-03T04:31:20;13.65;;;5.20;;
76856;SDS011;66179;44.686;37.628;2023-04-03T04:33:47;16.35;;;5.38;;
76856;SDS011;66179;44.686;37.628;2023-04-03T04:36:15;16.43;;;5.10;;
76856;SDS011;66179;44.686;37.628;2023-04-03T04:38:43;17.13;;;5.18;;
76856;SDS011;66179;44.686;37.628;2023-04-03T04:41:30;18.58;;;5.35;;
76856;SDS011;66179;44.686;37.628;2023-04-03T04:43:57;13.23;;;4.95;;
76856;SDS011;66179;44.686;37.628;2023-04-03T04:46:25;16.30;;;4.80;;
76856;SDS011;66179;44.686;37.628;2023-04-03T04:48:56;13.90;;;4.63;;
76856;SDS011;66179;44.686;37.628;2023-04-03T04:51:25;12.20;;;4.90;;
76856;SDS011;66179;44.686;37.628;2023-04-03T04:53:51;20.60;;;5.40;;
76856;SDS011;66179;44.686;37.628;2023-04-03T04:56:19;16.02;;;5.40;;
76856;SDS011;66179;44.686;37.628;2023-04-03T04:59:04;14.77;;;5.85;;
76856;SDS011;66179;44.686;37.628;2023-04-03T05:01:31;15.43;;;5.20;;
76856;SDS011;66179;44.686;37.628;2023-04-03T05:04:04;13.95;;;5.22;;
76856;SDS011;66179;44.686;37.628;2023-04-03T05:06:31;14.43;;;5.00;;
76856;SDS011;66179;44.686;37.628;2023-04-03T05:11:55;14.20;;;4.85;;
76856;SDS011;66179;44.686;37.628;2023-04-03T05:14:26;11.07;;;3.93;;
76856;SDS011;66179;44.686;37.628;2023-04-03T05:16:53;15.60;;;4.38;;
76856;SDS011;66179;44.686;37.628;2023-04-03T05:19:22;13.45;;;4.30;;
76856;SDS011;66179;44.686;37.628;2023-04-03T05:21:50;11.20;;;3.95;;
76856;SDS011;66179;44.686;37.628;2023-04-03T05:24:17;13.00;;;4.40;;
76856;SDS011;66179;44.686;37.628;2023-04-03T05:26:44;15.73;;;4.43;;
76856;SDS011;66179;44.686;37.628;2023-04-03T05:29:32;11.55;;;4.00;;
76856;SDS011;66179;44.686;37.628;2023-04-03T05:32:00;11.05;;;4.40;;
76856;SDS011;66179;44.686;37.628;2023-04-03T05:34:26;12.60;;;4.10;;
76856;SDS011;66179;44.686;37.628;2023-04-03T05:36:55;11.45;;;4.55;;
76856;SDS011;66179;44.686;37.628;2023-04-03T05:39:23;14.93;;;4.47;;
76856;SDS011;66179;44.686;37.628;2023-04-03T05:41:51;13.45;;;3.88;;
76856;SDS011;66179;44.686;37.628;2023-04-03T05:44:17;14.40;;;4.53;;
76856;SDS011;66179;44.686;37.628;2023-04-03T05:46:46;10.05;;;4.00;;
76856;SDS011;66179;44.686;37.628;2023-04-03T05:49:12;11.00;;;4.28;;
76856;SDS011;66179;44.686;37.628;2023-04-03T05:51:39;11.40;;;4.50;;
76856;SDS011;66179;44.686;37.628;2023-04-03T05:54:28;10.73;;;3.83;;
76856;SDS011;66179;44.686;37.628;2023-04-03T05:57:09;9.75;;;3.92;;
76856;SDS011;66179;44.686;37.628;2023-04-03T05:59:45;11.48;;;4.13;;
76856;SDS011;66179;44.686;37.628;2023-04-03T06:02:14;12.15;;;4.13;;
76856;SDS011;66179;44.686;37.628;2023-04-03T06:04:44;12.97;;;4.60;;
76856;SDS011;66179;44.686;37.628;2023-04-03T06:07:12;12.65;;;4.70;;
76856;SDS011;66179;44.686;37.628;2023-04-03T06:09:43;13.40;;;3.75;;
76856;SDS011;66179;44.686;37.628;2023-04-03T06:12:15;10.60;;;4.63;;
76856;SDS011;66179;44.686;37.628;2023-04-03T06:14:42;14.23;;;4.10;;
76856;SDS011;66179;44.686;37.628;2023-04-03T06:17:08;10.77;;;3.40;;
76856;SDS011;66179;44.686;37.628;2023-04-03T06:19:35;13.70;;;4.30;;
76856;SDS011;66179;44.686;37.628;2023-04-03T06:22:02;14.13;;;4.10;;
76856;SDS011;66179;44.686;37.628;2023-04-03T06:24:29;10.25;;;3.72;;
76856;SDS011;66179;44.686;37.628;2023-04-03T06:26:56;15.10;;;4.20;;
76856;SDS011;66179;44.686;37.628;2023-04-03T06:29:28;9.97;;;3.20;;
76856;SDS011;66179;44.686;37.628;2023-04-03T06:31:55;10.50;;;4.53;;
76856;SDS011;66179;44.686;37.628;2023-04-03T06:34:22;10.20;;;3.53;;
76856;SDS011;66179;44.686;37.628;2023-04-03T06:36:49;9.00;;;3.42;;
76856;SDS011;66179;44.686;37.628;2023-04-03T06:39:17;13.30;;;3.88;;
76856;SDS011;66179;44.686;37.628;2023-04-03T06:41:47;11.37;;;3.60;;
76856;SDS011;66179;44.686;37.628;2023-04-03T06:44:15;10.70;;;3.47;;
76856;SDS011;66179;44.686;37.628;2023-04-03T06:46:42;10.70;;;3.20;;
76856;SDS011;66179;44.686;37.628;2023-04-03T06:49:09;8.43;;;3.47;;
76856;SDS011;66179;44.686;37.628;2023-04-03T06:51:36;14.27;;;3.80;;
76856;SDS011;66179;44.686;37.628;2023-04-03T06:54:03;11.70;;;3.40;;
76856;SDS011;66179;44.686;37.628;2023-04-03T06:56:31;10.48;;;3.40;;
76856;SDS011;66179;44.686;37.628;2023-04-03T06:58:58;9.57;;;3.05;;
76856;SDS011;66179;44.686;37.628;2023-04-03T07:01:26;10.00;;;3.67;;
76856;SDS011;66179;44.686;37.628;2023-04-03T07:03:54;11.10;;;3.85;;
76856;SDS011;66179;44.686;37.628;2023-04-03T07:06:21;10.07;;;3.17;;
76856;SDS011;66179;44.686;37.628;2023-04-03T07:08:48;10.95;;;3.85;;
76856;SDS011;66179;44.686;37.628;2023-04-03T07:11:15;10.75;;;3.20;;
76856;SDS011;66179;44.686;37.628;2023-04-03T07:13:42;10.57;;;3.50;;
76856;SDS011;66179;44.686;37.628;2023-04-03T07:16:08;10.90;;;3.80;;
76856;SDS011;66179;44.686;37.628;2023-04-03T07:18:35;10.20;;;3.00;;
76856;SDS011;66179;44.686;37.628;2023-04-03T07:21:02;9.65;;;3.40;;
76856;SDS011;66179;44.686;37.628;2023-04-03T07:23:29;9.25;;;3.30;;
76856;SDS011;66179;44.686;37.628;2023-04-03T07:25:56;10.32;;;3.65;;
76856;SDS011;66179;44.686;37.628;2023-04-03T07:28:23;8.45;;;3.10;;
76856;SDS011;66179;44.686;37.628;2023-04-03T07:30:51;10.07;;;3.13;;
76856;SDS011;66179;44.686;37.628;2023-04-03T07:33:20;9.82;;;3.50;;
76856;SDS011;66179;44.686;37.628;2023-04-03T07:35:48;10.40;;;3.55;;
76856;SDS011;66179;44.686;37.628;2023-04-03T07:38:14;11.15;;;3.60;;
76856;SDS011;66179;44.686;37.628;2023-04-03T07:40:47;12.43;;;3.40;;
76856;SDS011;66179;44.686;37.628;2023-04-03T07:43:15;13.77;;;3.67;;
76856;SDS011;66179;44.686;37.628;2023-04-03T07:45:43;8.68;;;3.17;;
76856;SDS011;66179;44.686;37.628;2023-04-03T07:48:11;11.07;;;3.33;;
76856;SDS011;66179;44.686;37.628;2023-04-03T07:50:41;10.68;;;3.50;;
76856;SDS011;66179;44.686;37.628;2023-04-03T07:53:09;12.05;;;3.42;;
76856;SDS011;66179;44.686;37.628;2023-04-03T07:55:36;10.43;;;3.27;;
76856;SDS011;66179;44.686;37.628;2023-04-03T07:58:09;11.60;;;3.53;;
76856;SDS011;66179;44.686;37.628;2023-04-03T08:00:37;11.35;;;3.42;;
76856;SDS011;66179;44.686;37.628;2023-04-03T08:03:05;10.82;;;3.45;;
76856;SDS011;66179;44.686;37.628;2023-04-03T08:05:39;9.18;;;3.40;;
76856;SDS011;66179;44.686;37.628;2023-04-03T08:08:07;9.03;;;3.27;;
76856;SDS011;66179;44.686;37.628;2023-04-03T08:10:36;10.88;;;3.50;;
76856;SDS011;66179;44.686;37.628;2023-04-03T08:13:03;9.77;;;3.40;;
76856;SDS011;66179;44.686;37.628;2023-04-03T08:15:30;7.43;;;3.13;;
76856;SDS011;66179;44.686;37.628;2023-04-03T08:17:58;10.93;;;3.28;;
76856;SDS011;66179;44.686;37.628;2023-04-03T08:20:26;9.77;;;3.63;;
76856;SDS011;66179;44.686;37.628;2023-04-03T08:22:54;9.38;;;3.22;;
76856;SDS011;66179;44.686;37.628;2023-04-03T08:25:20;11.02;;;3.70;;
76856;SDS011;66179;44.686;37.628;2023-04-03T08:27:47;13.45;;;3.90;;
76856;SDS011;66179;44.686;37.628;2023-04-03T08:30:14;11.90;;;3.50;;
76856;SDS011;66179;44.686;37.628;2023-04-03T08:32:41;10.10;;;3.45;;
76856;SDS011;66179;44.686;37.628;2023-04-03T08:35:09;8.10;;;3.25;;
76856;SDS011;66179;44.686;37.628;2023-04-03T08:37:37;9.80;;;3.70;;
76856;SDS011;66179;44.686;37.628;2023-04-03T08:40:05;11.90;;;3.40;;
76856;SDS011;66179;44.686;37.628;2023-04-03T08:42:59;12.45;;;3.50;;
76856;SDS011;66179;44.686;37.628;2023-04-03T08:48:00;13.82;;;3.70;;
76856;SDS011;66179;44.686;37.628;2023-04-03T08:50:38;13.77;;;4.30;;
76856;SDS011;66179;44.686;37.628;2023-04-03T08:53:12;11.13;;;4.10;;
76856;SDS011;66179;44.686;37.628;2023-04-03T08:55:52;7.45;;;2.92;;
76856;SDS011;66179;44.686;37.628;2023-04-03T08:58:21;10.17;;;3.60;;
76856;SDS011;66179;44.686;37.628;2023-04-03T09:03:23;10.02;;;3.53;;
76856;SDS011;66179;44.686;37.628;2023-04-03T09:05:54;12.02;;;3.70;;
76856;SDS011;66179;44.686;37.628;2023-04-03T09:11:25;11.40;;;3.60;;
76856;SDS011;66179;44.686;37.628;2023-04-03T09:14:01;13.15;;;4.13;;
76856;SDS011;66179;44.686;37.628;2023-04-03T09:22:19;11.25;;;3.75;;
76856;SDS011;66179;44.686;37.628;2023-04-03T09:25:01;9.87;;;3.70;;
76856;SDS011;66179;44.686;37.628;2023-04-03T09:27:36;10.60;;;3.67;;
76856;SDS011;66179;44.686;37.628;2023-04-03T09:30:15;13.82;;;4.18;;
76856;SDS011;66179;44.686;37.628;2023-04-03T09:32:48;11.32;;;3.72;;
76856;SDS011;66179;44.686;37.628;2023-04-03T09:35:28;10.02;;;3.67;;
76856;SDS011;66179;44.686;37.628;2023-04-03T09:38:00;12.97;;;3.97;;
76856;SDS011;66179;44.686;37.628;2023-04-03T09:40:41;8.82;;;3.22;;
76856;SDS011;66179;44.686;37.628;2023-04-03T09:45:42;12.75;;;3.55;;
76856;SDS011;66179;44.686;37.628;2023-04-03T09:53:38;8.90;;;3.58;;
76856;SDS011;66179;44.686;37.628;2023-04-03T09:58:43;9.13;;;3.60;;
76856;SDS011;66179;44.686;37.628;2023-04-03T10:04:04;14.73;;;4.03;;
76856;SDS011;66179;44.686;37.628;2023-04-03T10:06:38;10.60;;;3.90;;
76856;SDS011;66179;44.686;37.628;2023-04-03T10:09:16;10.52;;;3.35;;
76856;SDS011;66179;44.686;37.628;2023-04-03T10:14:33;11.15;;;3.05;;
76856;SDS011;66179;44.686;37.628;2023-04-03T10:19:58;10.80;;;3.70;;
76856;SDS011;66179;44.686;37.628;2023-04-03T10:22:43;10.77;;;3.38;;
76856;SDS011;66179;44.686;37.628;2023-04-03T10:34:32;8.50;;;3.50;;
76856;SDS011;66179;44.686;37.628;2023-04-03T10:37:06;9.50;;;3.42;;
76856;SDS011;66179;44.686;37.628;2023-04-03T10:47:32;10.52;;;3.50;;
76856;SDS011;66179;44.686;37.628;2023-04-03T10:52:42;9.23;;;3.28;;
76856;SDS011;66179;44.686;37.628;2023-04-03T10:58:05;9.63;;;3.43;;
76856;SDS011;66179;44.686;37.628;2023-04-03T11:00:36;9.10;;;3.40;;
76856;SDS011;66179;44.686;37.628;2023-04-03T11:03:11;10.15;;;3.15;;
76856;SDS011;66179;44.686;37.628;2023-04-03T11:05:53;8.52;;;3.38;;
76856;SDS011;66179;44.686;37.628;2023-04-03T11:11:08;8.53;;;3.20;;
76856;SDS011;66179;44.686;37.628;2023-04-03T11:16:33;11.57;;;3.30;;
76856;SDS011;66179;44.686;37.628;2023-04-03T11:19:41;10.23;;;3.15;;
76856;SDS011;66179;44.686;37.628;2023-04-03T11:22:25;9.57;;;3.97;;
76856;SDS011;66179;44.686;37.628;2023-04-03T11:33:37;9.55;;;3.10;;
76856;SDS011;66179;44.686;37.628;2023-04-03T11:36:38;9.52;;;2.90;;
76856;SDS011;66179;44.686;37.628;2023-04-03T11:42:12;12.02;;;3.00;;
76856;SDS011;66179;44.686;37.628;2023-04-03T11:44:41;10.80;;;3.10;;
76856;SDS011;66179;44.686;37.628;2023-04-03T11:47:09;11.45;;;3.00;;
76856;SDS011;66179;44.686;37.628;2023-04-03T12:01:05;8.43;;;3.30;;
76856;SDS011;66179;44.686;37.628;2023-04-03T12:08:53;10.63;;;3.30;;
76856;SDS011;66179;44.686;37.628;2023-04-03T12:11:31;10.85;;;2.90;;
76856;SDS011;66179;44.686;37.628;2023-04-03T12:16:28;7.10;;;2.83;;
76856;SDS011;66179;44.686;37.628;2023-04-03T12:19:27;10.83;;;3.20;;
76856;SDS011;66179;44.686;37.628;2023-04-03T12:22:21;14.23;;;3.72;;
76856;SDS011;66179;44.686;37.628;2023-04-03T12:24:49;10.52;;;3.60;;
76856;SDS011;66179;44.686;37.628;2023-04-03T12:27:25;12.68;;;4.05;;
76856;SDS011;66179;44.686;37.628;2023-04-03T12:29:59;9.15;;;3.65;;
76856;SDS011;66179;44.686;37.628;2023-04-03T12:35:46;10.65;;;3.22;;
76856;SDS011;66179;44.686;37.628;2023-04-03T12:38:45;11.70;;;3.70;;
76856;SDS011;66179;44.686;37.628;2023-04-03T12:41:50;10.52;;;3.75;;
76856;SDS011;66179;44.686;37.628;2023-04-03T12:44:52;9.43;;;3.50;;
76856;SDS011;66179;44.686;37.628;2023-04-03T12:47:27;10.23;;;3.70;;
76856;SDS011;66179;44.686;37.628;2023-04-03T12:49:54;11.35;;;3.78;;
76856;SDS011;66179;44.686;37.628;2023-04-03T12:55:07;8.15;;;3.20;;
76856;SDS011;66179;44.686;37.628;2023-04-03T12:57:41;10.18;;;3.63;;
76856;SDS011;66179;44.686;37.628;2023-04-03T13:00:21;7.70;;;3.00;;
76856;SDS011;66179;44.686;37.628;2023-04-03T13:02:59;14.15;;;3.45;;
76856;SDS011;66179;44.686;37.628;2023-04-03T13:05:34;12.15;;;3.50;;
76856;SDS011;66179;44.686;37.628;2023-04-03T13:08:21;10.02;;;3.80;;
76856;SDS011;66179;44.686;37.628;2023-04-03T13:11:11;8.93;;;3.13;;
76856;SDS011;66179;44.686;37.628;2023-04-03T13:13:38;12.47;;;3.53;;
76856;SDS011;66179;44.686;37.628;2023-04-03T13:16:25;9.80;;;3.40;;
76856;SDS011;66179;44.686;37.628;2023-04-03T13:18:53;11.93;;;3.50;;
76856;SDS011;66179;44.686;37.628;2023-04-03T13:21:27;10.10;;;3.65;;
76856;SDS011;66179;44.686;37.628;2023-04-03T13:23:58;10.13;;;3.15;;
76856;SDS011;66179;44.686;37.628;2023-04-03T13:26:28;8.50;;;3.30;;
76856;SDS011;66179;44.686;37.628;2023-04-03T13:29:03;16.88;;;3.85;;
76856;SDS011;66179;44.686;37.628;2023-04-03T13:31:37;12.23;;;3.90;;
76856;SDS011;66179;44.686;37.628;2023-04-03T13:36:57;9.52;;;3.47;;
76856;SDS011;66179;44.686;37.628;2023-04-03T13:39:28;11.27;;;3.40;;
76856;SDS011;66179;44.686;37.628;2023-04-03T13:41:58;9.85;;;3.47;;
76856;SDS011;66179;44.686;37.628;2023-04-03T13:44:31;10.52;;;3.20;;
76856;SDS011;66179;44.686;37.628;2023-04-03T13:47:14;11.30;;;3.25;;
76856;SDS011;66179;44.686;37.628;2023-04-03T13:49:58;10.45;;;3.17;;
76856;SDS011;66179;44.686;37.628;2023-04-03T13:52:38;10.07;;;3.10;;
76856;SDS011;66179;44.686;37.628;2023-04-03T13:55:25;9.65;;;3.05;;
76856;SDS011;66179;44.686;37.628;2023-04-03T14:00:32;9.57;;;2.88;;
76856;SDS011;66179;44.686;37.628;2023-04-03T14:03:23;10.00;;;3.08;;
76856;SDS011;66179;44.686;37.628;2023-04-03T14:05:52;9.83;;;3.37;;
76856;SDS011;66179;44.686;37.628;2023-04-03T14:08:19;9.35;;;3.33;;
76856;SDS011;66179;44.686;37.628;2023-04-03T14:10:47;8.30;;;3.38;;
76856;SDS011;66179;44.686;37.628;2023-04-03T14:13:20;8.75;;;3.05;;
76856;SDS011;66179;44.686;37.628;2023-04-03T14:15:47;10.45;;;3.47;;
76856;SDS011;66179;44.686;37.628;2023-04-03T14:18:18;11.93;;;3.73;;
76856;SDS011;66179;44.686;37.628;2023-04-03T14:20:46;9.60;;;3.30;;
76856;SDS011;66179;44.686;37.628;2023-04-03T14:23:13;9.05;;;3.03;;
76856;SDS011;66179;44.686;37.628;2023-04-03T14:25:40;8.10;;;2.78;;
76856;SDS011;66179;44.686;37.628;2023-04-03T14:28:13;8.68;;;3.70;;
76856;SDS011;66179;44.686;37.628;2023-04-03T14:30:48;8.50;;;3.23;;
76856;SDS011;66179;44.686;37.628;2023-04-03T14:33:17;9.18;;;3.20;;
76856;SDS011;66179;44.686;37.628;2023-04-03T14:35:47;11.35;;;3.40;;
76856;SDS011;66179;44.686;37.628;2023-04-03T14:38:24;10.65;;;3.20;;
76856;SDS011;66179;44.686;37.628;2023-04-03T14:40:56;8.88;;;3.35;;
76856;SDS011;66179;44.686;37.628;2023-04-03T14:43:29;11.00;;;4.00;;
76856;SDS011;66179;44.686;37.628;2023-04-03T14:45:56;9.63;;;3.38;;
76856;SDS011;66179;44.686;37.628;2023-04-03T14:48:24;8.77;;;4.18;;
76856;SDS011;66179;44.686;37.628;2023-04-03T14:50:52;8.80;;;3.58;;
76856;SDS011;66179;44.686;37.628;2023-04-03T14:53:20;11.32;;;3.80;;
76856;SDS011;66179;44.686;37.628;2023-04-03T14:55:52;11.00;;;3.83;;
76856;SDS011;66179;44.686;37.628;2023-04-03T14:58:20;8.93;;;3.30;;
76856;SDS011;66179;44.686;37.628;2023-04-03T15:00:47;9.40;;;3.30;;
76856;SDS011;66179;44.686;37.628;2023-04-03T15:03:17;8.45;;;3.00;;
76856;SDS011;66179;44.686;37.628;2023-04-03T15:05:46;9.70;;;2.92;;
76856;SDS011;66179;44.686;37.628;2023-04-03T15:08:18;7.63;;;2.80;;
76856;SDS011;66179;44.686;37.628;2023-04-03T15:10:51;6.32;;;3.10;;
76856;SDS011;66179;44.686;37.628;2023-04-03T15:13:22;8.55;;;3.05;;
76856;SDS011;66179;44.686;37.628;2023-04-03T15:15:50;9.45;;;3.67;;
76856;SDS011;66179;44.686;37.628;2023-04-03T15:18:18;8.90;;;3.00;;
76856;SDS011;66179;44.686;37.628;2023-04-03T15:20:49;8.73;;;3.00;;
76856;SDS011;66179;44.686;37.628;2023-04-03T15:23:16;10.00;;;3.22;;
76856;SDS011;66179;44.686;37.628;2023-04-03T15:25:47;10.40;;;3.10;;
76856;SDS011;66179;44.686;37.628;2023-04-03T15:28:17;8.57;;;3.00;;
76856;SDS011;66179;44.686;37.628;2023-04-03T15:31:06;10.50;;;3.10;;
76856;SDS011;66179;44.686;37.628;2023-04-03T15:33:33;7.60;;;3.07;;
76856;SDS011;66179;44.686;37.628;2023-04-03T15:36:01;9.02;;;3.30;;
76856;SDS011;66179;44.686;37.628;2023-04-03T15:38:29;9.63;;;3.20;;
76856;SDS011;66179;44.686;37.628;2023-04-03T15:40:55;10.18;;;3.55;;
76856;SDS011;66179;44.686;37.628;2023-04-03T15:43:22;8.52;;;3.40;;
76856;SDS011;66179;44.686;37.628;2023-04-03T15:45:49;8.87;;;3.40;;
76856;SDS011;66179;44.686;37.628;2023-04-03T15:48:21;11.23;;;3.30;;
76856;SDS011;66179;44.686;37.628;2023-04-03T15:50:48;9.48;;;3.60;;
76856;SDS011;66179;44.686;37.628;2023-04-03T15:53:16;8.82;;;3.40;;
76856;SDS011;66179;44.686;37.628;2023-04-03T15:55:49;9.63;;;3.88;;
76856;SDS011;66179;44.686;37.628;2023-04-03T15:58:16;10.43;;;3.33;;
76856;SDS011;66179;44.686;37.628;2023-04-03T16:00:43;9.10;;;3.40;;
76856;SDS011;66179;44.686;37.628;2023-04-03T16:03:18;11.45;;;3.30;;
76856;SDS011;66179;44.686;37.628;2023-04-03T16:05:48;10.88;;;3.50;;
76856;SDS011;66179;44.686;37.628;2023-04-03T16:08:15;10.23;;;3.45;;
76856;SDS011;66179;44.686;37.628;2023-04-03T16:10:43;9.60;;;3.23;;
76856;SDS011;66179;44.686;37.628;2023-04-03T16:13:12;11.35;;;3.70;;
76856;SDS011;66179;44.686;37.628;2023-04-03T16:15:39;8.25;;;3.40;;
76856;SDS011;66179;44.686;37.628;2023-04-03T16:18:07;8.48;;;3.63;;
76856;SDS011;66179;44.686;37.628;2023-04-03T16:20:35;9.02;;;3.38;;
76856;SDS011;66179;44.686;37.628;2023-04-03T16:23:02;10.17;;;3.70;;
76856;SDS011;66179;44.686;37.628;2023-04-03T16:25:29;8.32;;;3.13;;
76856;SDS011;66179;44.686;37.628;2023-04-03T16:27:57;8.10;;;3.35;;
76856;SDS011;66179;44.686;37.628;2023-04-03T16:30:23;11.80;;;3.40;;
76856;SDS011;66179;44.686;37.628;2023-04-03T16:32:50;10.65;;;3.72;;
76856;SDS011;66179;44.686;37.628;2023-04-03T16:35:17;10.80;;;3.60;;
76856;SDS011;66179;44.686;37.628;2023-04-03T16:37:44;9.93;;;3.60;;
76856;SDS011;66179;44.686;37.628;2023-04-03T16:40:11;9.32;;;3.40;;
76856;SDS011;66179;44.686;37.628;2023-04-03T16:42:38;10.63;;;3.60;;
76856;SDS011;66179;44.686;37.628;2023-04-03T16:45:05;9.60;;;3.40;;